createdAt,value
2017-12-17T00:00:55.986Z,1012.08
2017-12-17T00:01:55.965Z,1012.08
2017-12-17T00:02:55.961Z,1012.08
2017-12-17T00:03:55.950Z,1012.06
2017-12-17T00:04:55.941Z,1012.00
2017-12-17T00:05:56.559Z,1012.02
2017-12-17T00:06:55.925Z,1011.99
2017-12-17T00:07:55.913Z,1012.02
2017-12-17T00:08:55.903Z,1012.07
2017-12-17T00:09:55.916Z,1012.02
2017-12-17T00:10:55.882Z,1012.02
2017-12-17T00:11:56.552Z,1012.05
2017-12-17T00:12:55.860Z,1012.03
2017-12-17T00:13:55.867Z,1012.09
2017-12-17T00:14:56.554Z,1012.07
2017-12-17T00:15:55.837Z,1012.08
2017-12-17T00:16:55.825Z,1012.10
2017-12-17T00:17:56.559Z,1012.11
2017-12-17T00:18:55.803Z,1012.11
2017-12-17T00:19:56.562Z,1012.09
2017-12-17T00:20:55.783Z,1012.15
2017-12-17T00:21:55.790Z,1012.13
2017-12-17T00:22:55.765Z,1012.12
2017-12-17T00:23:56.559Z,1012.08
2017-12-17T00:24:55.740Z,1012.09
2017-12-17T00:25:55.727Z,1012.08
2017-12-17T00:26:55.718Z,1012.07
2017-12-17T00:27:55.765Z,1012.02
2017-12-17T00:28:55.699Z,1012.07
2017-12-17T00:29:55.694Z,1012.04
2017-12-17T00:30:55.694Z,1012.08
2017-12-17T00:31:55.672Z,1012.09
2017-12-17T00:32:55.652Z,1012.07
2017-12-17T00:33:55.652Z,1012.08
2017-12-17T00:34:55.655Z,1012.10
2017-12-17T00:35:55.635Z,1012.08
2017-12-17T00:36:55.622Z,1012.13
2017-12-17T00:37:55.611Z,1012.16
2017-12-17T00:38:55.600Z,1012.15
2017-12-17T00:39:56.564Z,1012.14
2017-12-17T00:40:55.578Z,1012.14
2017-12-17T00:41:55.569Z,1012.17
2017-12-17T00:42:55.560Z,1012.19
2017-12-17T00:43:55.549Z,1012.15
2017-12-17T00:44:55.536Z,1012.12
2017-12-17T00:45:55.529Z,1012.19
2017-12-17T00:46:55.519Z,1012.22
2017-12-17T00:47:55.527Z,1012.14
2017-12-17T00:48:55.512Z,1012.17
2017-12-17T00:49:55.488Z,1012.18
2017-12-17T00:50:55.482Z,1012.16
2017-12-17T00:51:55.472Z,1012.15
2017-12-17T00:52:55.462Z,1012.18
2017-12-17T00:53:55.469Z,1012.17
2017-12-17T00:54:55.443Z,1012.22
2017-12-17T00:55:55.428Z,1012.21
2017-12-17T00:56:55.408Z,1012.19
2017-12-17T00:57:55.408Z,1012.22
2017-12-17T00:58:55.398Z,1012.24
2017-12-17T00:59:56.064Z,1012.25
2017-12-17T01:00:55.383Z,1012.23
2017-12-17T01:01:55.373Z,1012.26
2017-12-17T01:02:55.371Z,1012.25
2017-12-17T01:03:55.354Z,1012.27
2017-12-17T01:04:55.344Z,1012.29
2017-12-17T01:05:55.330Z,1012.32
2017-12-17T01:06:55.319Z,1012.34
2017-12-17T01:07:55.307Z,1012.34
2017-12-17T01:08:55.298Z,1012.27
2017-12-17T01:09:55.280Z,1012.31
2017-12-17T01:10:55.289Z,1012.26
2017-12-17T01:11:55.272Z,1012.34
2017-12-17T01:12:55.261Z,1012.33
2017-12-17T01:13:55.299Z,1012.32
2017-12-17T01:14:55.242Z,1012.31
2017-12-17T01:15:55.236Z,1012.37
2017-12-17T01:16:55.222Z,1012.37
2017-12-17T01:17:55.211Z,1012.40
2017-12-17T01:18:55.202Z,1012.39
2017-12-17T01:19:55.193Z,1012.47
2017-12-17T01:20:55.180Z,1012.41
2017-12-17T01:21:55.171Z,1012.39
2017-12-17T01:22:58.075Z,1012.40
2017-12-17T01:23:55.145Z,1012.43
2017-12-17T01:24:55.140Z,1012.43
2017-12-17T01:25:55.126Z,1012.46
2017-12-17T01:26:55.115Z,1012.46
2017-12-17T01:27:55.107Z,1012.51
2017-12-17T01:28:56.078Z,1012.48
2017-12-17T01:29:55.089Z,1012.51
2017-12-17T01:30:55.074Z,1012.47
2017-12-17T01:31:55.065Z,1012.53
2017-12-17T01:32:55.059Z,1012.53
2017-12-17T01:33:55.048Z,1012.57
2017-12-17T01:34:55.038Z,1012.56
2017-12-17T01:35:07.033Z,1012.59
2017-12-17T01:36:55.018Z,1012.60
2017-12-17T01:37:55.004Z,1012.62
2017-12-17T01:38:54.996Z,1012.60
2017-12-17T01:39:54.986Z,1012.61
2017-12-17T01:40:54.972Z,1012.60
2017-12-17T01:41:54.968Z,1012.57
2017-12-17T01:42:54.955Z,1012.62
2017-12-17T01:43:54.947Z,1012.64
2017-12-17T01:44:54.954Z,1012.69
2017-12-17T01:45:54.923Z,1012.67
2017-12-17T01:46:54.924Z,1012.69
2017-12-17T01:47:54.901Z,1012.70
2017-12-17T01:48:54.896Z,1012.67
2017-12-17T01:49:54.887Z,1012.66
2017-12-17T01:50:54.879Z,1012.64
2017-12-17T01:51:54.858Z,1012.60
2017-12-17T01:52:55.592Z,1012.56
2017-12-17T01:53:54.841Z,1012.60
2017-12-17T01:54:57.585Z,1012.67
2017-12-17T01:55:54.818Z,1012.62
2017-12-17T01:56:54.807Z,1012.70
2017-12-17T01:57:54.798Z,1012.74
2017-12-17T01:58:54.799Z,1012.69
2017-12-17T01:59:54.782Z,1012.74
2017-12-17T02:00:54.827Z,1012.74
2017-12-17T02:01:54.761Z,1012.73
2017-12-17T02:02:54.751Z,1012.73
2017-12-17T02:03:55.586Z,1012.77
2017-12-17T02:04:54.726Z,1012.79
2017-12-17T02:05:54.717Z,1012.81
2017-12-17T02:06:54.708Z,1012.82
2017-12-17T02:07:54.701Z,1012.84
2017-12-17T02:08:54.708Z,1012.83
2017-12-17T02:09:57.587Z,1012.87
2017-12-17T02:10:54.686Z,1012.88
2017-12-17T02:11:54.661Z,1012.89
2017-12-17T02:12:54.647Z,1012.88
2017-12-17T02:13:54.638Z,1012.88
2017-12-17T02:14:54.645Z,1012.89
2017-12-17T02:15:55.587Z,1012.87
2017-12-17T02:16:54.604Z,1012.90
2017-12-17T02:17:54.591Z,1012.88
2017-12-17T02:18:54.583Z,1012.91
2017-12-17T02:19:54.578Z,1012.87
2017-12-17T02:20:54.563Z,1012.88
2017-12-17T02:21:54.572Z,1012.88
2017-12-17T02:22:54.543Z,1012.90
2017-12-17T02:23:54.536Z,1012.84
2017-12-17T02:24:54.521Z,1012.89
2017-12-17T02:25:54.533Z,1012.88
2017-12-17T02:26:54.505Z,1012.94
2017-12-17T02:27:57.096Z,1012.94
2017-12-17T02:28:54.486Z,1012.98
2017-12-17T02:29:54.476Z,1012.97
2017-12-17T02:30:54.467Z,1012.96
2017-12-17T02:31:54.447Z,1012.94
2017-12-17T02:32:54.444Z,1012.98
2017-12-17T02:33:55.096Z,1012.95
2017-12-17T02:34:54.428Z,1012.93
2017-12-17T02:35:54.404Z,1012.98
2017-12-17T02:36:54.399Z,1012.98
2017-12-17T02:37:54.391Z,1012.98
2017-12-17T02:38:54.395Z,1013.00
2017-12-17T02:39:55.103Z,1013.01
2017-12-17T02:40:54.362Z,1012.98
2017-12-17T02:41:54.353Z,1012.99
2017-12-17T02:42:54.344Z,1012.98
2017-12-17T02:43:54.330Z,1013.05
2017-12-17T02:44:54.321Z,1013.14
2017-12-17T02:45:55.101Z,1013.08
2017-12-17T02:46:54.297Z,1013.08
2017-12-17T02:47:54.286Z,1013.12
2017-12-17T02:48:54.282Z,1013.17
2017-12-17T02:49:54.264Z,1013.11
2017-12-17T02:50:54.258Z,1013.06
2017-12-17T02:51:55.098Z,1013.10
2017-12-17T02:52:54.238Z,1013.08
2017-12-17T02:53:54.225Z,1013.09
2017-12-17T02:54:54.215Z,1013.06
2017-12-17T02:55:54.208Z,1013.02
2017-12-17T02:56:54.211Z,1013.07
2017-12-17T02:57:55.111Z,1013.09
2017-12-17T02:58:54.175Z,1013.05
2017-12-17T02:59:54.178Z,1013.11
2017-12-17T03:00:55.106Z,1013.04
2017-12-17T03:01:54.145Z,1013.07
2017-12-17T03:02:54.135Z,1013.14
2017-12-17T03:03:54.124Z,1013.13
2017-12-17T03:04:54.112Z,1013.16
2017-12-17T03:05:54.103Z,1013.17
2017-12-17T03:06:54.092Z,1013.14
2017-12-17T03:07:54.085Z,1013.19
2017-12-17T03:08:54.073Z,1013.19
2017-12-17T03:09:54.064Z,1013.24
2017-12-17T03:10:54.057Z,1013.16
2017-12-17T03:11:54.042Z,1013.18
2017-12-17T03:12:54.049Z,1013.18
2017-12-17T03:13:54.019Z,1013.16
2017-12-17T03:14:54.013Z,1013.20
2017-12-17T03:15:54.002Z,1013.18
2017-12-17T03:16:54.000Z,1013.17
2017-12-17T03:17:53.978Z,1013.23
2017-12-17T03:18:53.968Z,1013.18
2017-12-17T03:19:53.960Z,1013.29
2017-12-17T03:20:53.967Z,1013.19
2017-12-17T03:21:53.939Z,1013.25
2017-12-17T03:22:53.930Z,1013.28
2017-12-17T03:23:53.921Z,1013.24
2017-12-17T03:24:54.615Z,1013.27
2017-12-17T03:25:53.898Z,1013.31
2017-12-17T03:26:54.617Z,1013.26
2017-12-17T03:27:53.875Z,1013.29
2017-12-17T03:28:53.862Z,1013.28
2017-12-17T03:29:53.853Z,1013.33
2017-12-17T03:30:53.852Z,1013.29
2017-12-17T03:31:53.834Z,1013.35
2017-12-17T03:32:53.825Z,1013.37
2017-12-17T03:33:53.811Z,1013.36
2017-12-17T03:34:53.802Z,1013.37
2017-12-17T03:35:53.800Z,1013.42
2017-12-17T03:36:53.791Z,1013.37
2017-12-17T03:37:53.774Z,1013.36
2017-12-17T03:38:53.765Z,1013.40
2017-12-17T03:39:53.758Z,1013.38
2017-12-17T03:40:05.752Z,1013.41
2017-12-17T03:41:53.735Z,1013.43
2017-12-17T03:42:54.624Z,1013.40
2017-12-17T03:43:53.708Z,1013.41
2017-12-17T03:44:53.705Z,1013.42
2017-12-17T03:45:53.690Z,1013.44
2017-12-17T03:46:53.676Z,1013.43
2017-12-17T03:47:53.666Z,1013.41
2017-12-17T03:48:53.658Z,1013.41
2017-12-17T03:49:53.647Z,1013.46
2017-12-17T03:50:53.639Z,1013.40
2017-12-17T03:51:53.625Z,1013.44
2017-12-17T03:52:53.614Z,1013.46
2017-12-17T03:53:54.126Z,1013.40
2017-12-17T03:54:53.600Z,1013.40
2017-12-17T03:55:53.592Z,1013.40
2017-12-17T03:56:53.579Z,1013.39
2017-12-17T03:57:53.567Z,1013.36
2017-12-17T03:58:54.132Z,1013.36
2017-12-17T03:59:53.546Z,1013.36
2017-12-17T04:00:53.536Z,1013.36
2017-12-17T04:01:53.522Z,1013.41
2017-12-17T04:02:53.516Z,1013.43
2017-12-17T04:03:54.119Z,1013.45
2017-12-17T04:04:53.489Z,1013.47
2017-12-17T04:05:53.481Z,1013.46
2017-12-17T04:06:53.474Z,1013.47
2017-12-17T04:07:53.470Z,1013.49
2017-12-17T04:08:53.456Z,1013.46
2017-12-17T04:09:53.444Z,1013.47
2017-12-17T04:10:53.435Z,1013.46
2017-12-17T04:11:53.419Z,1013.51
2017-12-17T04:12:53.410Z,1013.49
2017-12-17T04:13:53.399Z,1013.49
2017-12-17T04:14:53.410Z,1013.52
2017-12-17T04:15:53.379Z,1013.54
2017-12-17T04:16:53.374Z,1013.58
2017-12-17T04:17:53.358Z,1013.57
2017-12-17T04:18:53.353Z,1013.58
2017-12-17T04:19:56.128Z,1013.58
2017-12-17T04:20:53.331Z,1013.58
2017-12-17T04:21:53.312Z,1013.57
2017-12-17T04:22:53.314Z,1013.59
2017-12-17T04:23:53.299Z,1013.60
2017-12-17T04:24:53.287Z,1013.63
2017-12-17T04:25:53.276Z,1013.63
2017-12-17T04:26:53.266Z,1013.63
2017-12-17T04:27:53.247Z,1013.62
2017-12-17T04:28:53.242Z,1013.61
2017-12-17T04:29:53.234Z,1013.63
2017-12-17T04:30:53.236Z,1013.61
2017-12-17T04:31:56.132Z,1013.69
2017-12-17T04:32:53.208Z,1013.68
2017-12-17T04:33:53.196Z,1013.72
2017-12-17T04:34:54.156Z,1013.74
2017-12-17T04:35:53.177Z,1013.70
2017-12-17T04:36:53.171Z,1013.76
2017-12-17T04:38:00.139Z,1013.79
2017-12-17T04:38:53.148Z,1013.78
2017-12-17T04:39:53.128Z,1013.79
2017-12-17T04:40:53.125Z,1013.87
2017-12-17T04:41:53.140Z,1013.86
2017-12-17T04:42:53.636Z,1013.87
2017-12-17T04:43:53.634Z,1013.89
2017-12-17T04:44:53.082Z,1013.89
2017-12-17T04:45:53.071Z,1013.92
2017-12-17T04:46:53.066Z,1013.92
2017-12-17T04:47:53.052Z,1013.91
2017-12-17T04:48:55.639Z,1013.97
2017-12-17T04:49:53.034Z,1013.95
2017-12-17T04:50:53.027Z,1013.96
2017-12-17T04:51:53.015Z,1014.01
2017-12-17T04:52:53.005Z,1013.98
2017-12-17T04:53:52.990Z,1013.97
2017-12-17T04:54:52.996Z,1013.91
2017-12-17T04:55:52.989Z,1014.05
2017-12-17T04:56:07.637Z,1014.00
2017-12-17T04:57:52.954Z,1013.98
2017-12-17T04:58:52.945Z,1014.01
2017-12-17T04:59:52.930Z,1014.03
2017-12-17T05:00:53.644Z,1014.06
2017-12-17T05:01:52.912Z,1014.06
2017-12-17T05:02:52.900Z,1014.03
2017-12-17T05:03:52.886Z,1014.09
2017-12-17T05:04:52.877Z,1014.06
2017-12-17T05:05:53.650Z,1014.06
2017-12-17T05:06:53.648Z,1014.05
2017-12-17T05:07:52.848Z,1014.08
2017-12-17T05:08:52.837Z,1014.11
2017-12-17T05:09:52.831Z,1014.09
2017-12-17T05:10:52.850Z,1014.09
2017-12-17T05:11:52.803Z,1014.09
2017-12-17T05:12:52.793Z,1014.10
2017-12-17T05:13:52.784Z,1014.12
2017-12-17T05:14:53.647Z,1014.10
2017-12-17T05:15:52.769Z,1014.14
2017-12-17T05:16:52.755Z,1014.14
2017-12-17T05:17:52.746Z,1014.11
2017-12-17T05:18:53.648Z,1014.13
2017-12-17T05:19:52.719Z,1014.11
2017-12-17T05:20:52.726Z,1014.14
2017-12-17T05:21:52.714Z,1014.17
2017-12-17T05:22:52.689Z,1014.16
2017-12-17T05:23:52.678Z,1014.21
2017-12-17T05:24:52.666Z,1014.23
2017-12-17T05:25:52.656Z,1014.27
2017-12-17T05:26:52.648Z,1014.21
2017-12-17T05:27:52.636Z,1014.24
2017-12-17T05:28:52.632Z,1014.24
2017-12-17T05:29:53.151Z,1014.26
2017-12-17T05:30:52.610Z,1014.31
2017-12-17T05:31:52.600Z,1014.31
2017-12-17T05:32:52.588Z,1014.30
2017-12-17T05:33:52.576Z,1014.35
2017-12-17T05:34:52.567Z,1014.34
2017-12-17T05:35:53.151Z,1014.35
2017-12-17T05:36:52.542Z,1014.36
2017-12-17T05:37:52.531Z,1014.41
2017-12-17T05:38:52.525Z,1014.40
2017-12-17T05:39:52.510Z,1014.39
2017-12-17T05:40:52.493Z,1014.45
2017-12-17T05:41:53.153Z,1014.41
2017-12-17T05:42:52.480Z,1014.41
2017-12-17T05:43:52.466Z,1014.40
2017-12-17T05:44:52.461Z,1014.43
2017-12-17T05:45:52.445Z,1014.39
2017-12-17T05:46:52.441Z,1014.42
2017-12-17T05:47:53.168Z,1014.38
2017-12-17T05:48:52.418Z,1014.42
2017-12-17T05:49:52.403Z,1014.43
2017-12-17T05:50:52.393Z,1014.43
2017-12-17T05:51:52.386Z,1014.46
2017-12-17T05:52:52.381Z,1014.47
2017-12-17T05:53:52.371Z,1014.51
2017-12-17T05:54:52.353Z,1014.54
2017-12-17T05:55:52.395Z,1014.54
2017-12-17T05:56:52.334Z,1014.53
2017-12-17T05:57:52.318Z,1014.62
2017-12-17T05:58:52.323Z,1014.62
2017-12-17T05:59:52.305Z,1014.63
2017-12-17T06:00:52.294Z,1014.67
2017-12-17T06:01:52.280Z,1014.69
2017-12-17T06:02:52.288Z,1014.62
2017-12-17T06:03:52.266Z,1014.61
2017-12-17T06:04:52.255Z,1014.65
2017-12-17T06:05:52.246Z,1014.61
2017-12-17T06:06:52.236Z,1014.60
2017-12-17T06:07:52.220Z,1014.62
2017-12-17T06:08:53.163Z,1014.66
2017-12-17T06:09:52.203Z,1014.65
2017-12-17T06:10:53.161Z,1014.69
2017-12-17T06:11:52.173Z,1014.66
2017-12-17T06:12:52.166Z,1014.65
2017-12-17T06:13:52.151Z,1014.61
2017-12-17T06:14:52.669Z,1014.64
2017-12-17T06:15:52.662Z,1014.69
2017-12-17T06:16:52.654Z,1014.66
2017-12-17T06:17:52.114Z,1014.69
2017-12-17T06:18:52.101Z,1014.70
2017-12-17T06:19:52.089Z,1014.71
2017-12-17T06:20:54.658Z,1014.72
2017-12-17T06:21:52.072Z,1014.71
2017-12-17T06:22:52.072Z,1014.70
2017-12-17T06:23:52.067Z,1014.74
2017-12-17T06:24:52.050Z,1014.70
2017-12-17T06:25:52.028Z,1014.78
2017-12-17T06:26:52.029Z,1014.79
2017-12-17T06:27:52.014Z,1014.80
2017-12-17T06:28:52.668Z,1014.79
2017-12-17T06:29:51.991Z,1014.84
2017-12-17T06:30:51.984Z,1014.79
2017-12-17T06:31:51.970Z,1014.81
2017-12-17T06:32:52.668Z,1014.84
2017-12-17T06:33:51.955Z,1014.88
2017-12-17T06:34:52.669Z,1014.86
2017-12-17T06:35:51.935Z,1014.85
2017-12-17T06:36:51.917Z,1014.92
2017-12-17T06:37:51.909Z,1014.89
2017-12-17T06:38:51.896Z,1014.92
2017-12-17T06:39:51.896Z,1014.97
2017-12-17T06:40:51.883Z,1015.00
2017-12-17T06:41:51.871Z,1015.05
2017-12-17T06:42:51.865Z,1015.06
2017-12-17T06:43:51.853Z,1015.05
2017-12-17T06:44:51.837Z,1015.07
2017-12-17T06:45:52.680Z,1015.07
2017-12-17T06:46:51.820Z,1015.07
2017-12-17T06:47:51.801Z,1015.09
2017-12-17T06:48:51.800Z,1015.10
2017-12-17T06:49:51.783Z,1015.14
2017-12-17T06:50:51.779Z,1015.18
2017-12-17T06:51:51.769Z,1015.17
2017-12-17T06:52:51.742Z,1015.16
2017-12-17T06:53:51.742Z,1015.19
2017-12-17T06:54:51.733Z,1015.20
2017-12-17T06:55:54.675Z,1015.19
2017-12-17T06:56:51.718Z,1015.23
2017-12-17T06:57:51.702Z,1015.26
2017-12-17T06:58:51.697Z,1015.21
2017-12-17T06:59:51.684Z,1015.23
2017-12-17T07:00:51.675Z,1015.29
2017-12-17T07:01:51.658Z,1015.30
2017-12-17T07:02:51.653Z,1015.28
2017-12-17T07:03:51.642Z,1015.24
2017-12-17T07:04:51.631Z,1015.28
2017-12-17T07:05:51.619Z,1015.29
2017-12-17T07:06:51.612Z,1015.30
2017-12-17T07:07:51.600Z,1015.27
2017-12-17T07:08:51.590Z,1015.31
2017-12-17T07:09:51.578Z,1015.28
2017-12-17T07:10:51.569Z,1015.30
2017-12-17T07:11:51.563Z,1015.30
2017-12-17T07:12:51.558Z,1015.30
2017-12-17T07:13:51.579Z,1015.28
2017-12-17T07:14:51.534Z,1015.32
2017-12-17T07:15:52.185Z,1015.31
2017-12-17T07:16:51.511Z,1015.35
2017-12-17T07:17:51.500Z,1015.35
2017-12-17T07:18:51.492Z,1015.35
2017-12-17T07:19:51.477Z,1015.36
2017-12-17T07:20:51.468Z,1015.39
2017-12-17T07:21:52.195Z,1015.40
2017-12-17T07:22:51.447Z,1015.42
2017-12-17T07:23:51.444Z,1015.42
2017-12-17T07:24:51.425Z,1015.43
2017-12-17T07:25:51.423Z,1015.42
2017-12-17T07:26:51.410Z,1015.47
2017-12-17T07:27:51.397Z,1015.48
2017-12-17T07:28:51.391Z,1015.49
2017-12-17T07:29:51.381Z,1015.51
2017-12-17T07:30:51.368Z,1015.49
2017-12-17T07:31:51.359Z,1015.54
2017-12-17T07:32:51.363Z,1015.57
2017-12-17T07:33:51.333Z,1015.54
2017-12-17T07:34:51.327Z,1015.55
2017-12-17T07:35:51.315Z,1015.62
2017-12-17T07:36:51.302Z,1015.60
2017-12-17T07:37:51.293Z,1015.66
2017-12-17T07:38:51.285Z,1015.63
2017-12-17T07:39:51.273Z,1015.66
2017-12-17T07:40:51.261Z,1015.71
2017-12-17T07:41:51.260Z,1015.75
2017-12-17T07:42:51.243Z,1015.76
2017-12-17T07:43:51.234Z,1015.81
2017-12-17T07:44:51.220Z,1015.81
2017-12-17T07:45:52.199Z,1015.83
2017-12-17T07:46:51.204Z,1015.82
2017-12-17T07:47:51.196Z,1015.85
2017-12-17T07:48:51.185Z,1015.82
2017-12-17T07:49:51.167Z,1015.85
2017-12-17T07:50:51.170Z,1015.87
2017-12-17T07:51:51.157Z,1015.88
2017-12-17T07:52:51.145Z,1015.87
2017-12-17T07:53:51.135Z,1015.90
2017-12-17T07:54:51.120Z,1015.93
2017-12-17T07:55:51.174Z,1015.94
2017-12-17T07:56:51.105Z,1015.94
2017-12-17T07:57:51.110Z,1015.98
2017-12-17T07:58:51.080Z,1016.06
2017-12-17T07:59:51.073Z,1016.07
2017-12-17T08:00:51.693Z,1016.06
2017-12-17T08:01:51.059Z,1016.11
2017-12-17T08:02:51.044Z,1016.11
2017-12-17T08:03:51.042Z,1016.12
2017-12-17T08:04:51.021Z,1016.18
2017-12-17T08:05:51.051Z,1016.19
2017-12-17T08:06:51.001Z,1016.21
2017-12-17T08:07:50.986Z,1016.26
2017-12-17T08:08:50.992Z,1016.25
2017-12-17T08:09:50.969Z,1016.25
2017-12-17T08:10:50.960Z,1016.24
2017-12-17T08:11:50.944Z,1016.26
2017-12-17T08:12:50.940Z,1016.27
2017-12-17T08:13:50.927Z,1016.24
2017-12-17T08:14:51.704Z,1016.27
2017-12-17T08:15:50.912Z,1016.29
2017-12-17T08:16:50.898Z,1016.30
2017-12-17T08:17:50.891Z,1016.29
2017-12-17T08:18:50.883Z,1016.25
2017-12-17T08:19:50.873Z,1016.23
2017-12-17T08:20:51.703Z,1016.23
2017-12-17T08:21:50.850Z,1016.22
2017-12-17T08:22:50.836Z,1016.19
2017-12-17T08:23:50.825Z,1016.18
2017-12-17T08:24:50.818Z,1016.18
2017-12-17T08:25:50.813Z,1016.22
2017-12-17T08:26:50.800Z,1016.25
2017-12-17T08:27:50.793Z,1016.23
2017-12-17T08:28:50.785Z,1016.26
2017-12-17T08:29:50.772Z,1016.23
2017-12-17T08:30:50.765Z,1016.27
2017-12-17T08:31:50.743Z,1016.34
2017-12-17T08:32:51.705Z,1016.35
2017-12-17T08:33:50.729Z,1016.34
2017-12-17T08:34:51.696Z,1016.40
2017-12-17T08:35:50.706Z,1016.41
2017-12-17T08:36:50.698Z,1016.40
2017-12-17T08:37:50.687Z,1016.43
2017-12-17T08:38:50.684Z,1016.48
2017-12-17T08:39:50.671Z,1016.48
2017-12-17T08:40:50.657Z,1016.52
2017-12-17T08:41:50.653Z,1016.53
2017-12-17T08:42:50.650Z,1016.52
2017-12-17T08:43:50.631Z,1016.55
2017-12-17T08:44:50.622Z,1016.57
2017-12-17T08:45:50.612Z,1016.55
2017-12-17T08:46:50.602Z,1016.57
2017-12-17T08:47:50.587Z,1016.63
2017-12-17T08:48:50.578Z,1016.63
2017-12-17T08:49:50.576Z,1016.64
2017-12-17T08:50:50.570Z,1016.65
2017-12-17T08:51:50.548Z,1016.63
2017-12-17T08:52:50.539Z,1016.65
2017-12-17T08:53:51.213Z,1016.66
2017-12-17T08:54:50.517Z,1016.72
2017-12-17T08:55:50.513Z,1016.68
2017-12-17T08:56:50.502Z,1016.74
2017-12-17T08:57:50.495Z,1016.73
2017-12-17T08:58:50.536Z,1016.73
2017-12-17T08:59:50.510Z,1016.71
2017-12-17T09:00:50.463Z,1016.71
2017-12-17T09:01:50.444Z,1016.73
2017-12-17T09:02:50.445Z,1016.72
2017-12-17T09:03:50.441Z,1016.76
2017-12-17T09:04:50.420Z,1016.79
2017-12-17T09:05:51.212Z,1016.82
2017-12-17T09:06:50.401Z,1016.88
2017-12-17T09:07:50.392Z,1016.86
2017-12-17T09:08:51.214Z,1016.87
2017-12-17T09:09:50.370Z,1016.87
2017-12-17T09:10:50.362Z,1016.89
2017-12-17T09:11:50.351Z,1016.89
2017-12-17T09:12:50.344Z,1016.95
2017-12-17T09:13:50.336Z,1016.94
2017-12-17T09:14:50.338Z,1016.95
2017-12-17T09:15:50.304Z,1016.96
2017-12-17T09:16:50.302Z,1016.98
2017-12-17T09:17:50.315Z,1016.96
2017-12-17T09:18:50.328Z,1016.96
2017-12-17T09:19:50.283Z,1016.99
2017-12-17T09:20:53.219Z,1016.97
2017-12-17T09:21:50.252Z,1017.00
2017-12-17T09:22:50.244Z,1017.01
2017-12-17T09:23:50.230Z,1016.97
2017-12-17T09:24:50.222Z,1016.98
2017-12-17T09:25:50.213Z,1016.97
2017-12-17T09:26:56.722Z,1017.02
2017-12-17T09:27:50.194Z,1016.96
2017-12-17T09:28:50.185Z,1017.03
2017-12-17T09:29:50.176Z,1017.03
2017-12-17T09:30:50.724Z,1017.03
2017-12-17T09:31:50.165Z,1017.06
2017-12-17T09:32:50.147Z,1017.03
2017-12-17T09:33:50.136Z,1017.09
2017-12-17T09:34:50.134Z,1017.06
2017-12-17T09:35:50.117Z,1017.06
2017-12-17T09:36:50.725Z,1017.10
2017-12-17T09:37:50.100Z,1017.08
2017-12-17T09:38:50.731Z,1017.12
2017-12-17T09:39:50.098Z,1017.09
2017-12-17T09:40:50.063Z,1017.14
2017-12-17T09:41:50.053Z,1017.13
2017-12-17T09:42:50.051Z,1017.21
2017-12-17T09:43:50.055Z,1017.15
2017-12-17T09:44:50.716Z,1017.16
2017-12-17T09:45:50.019Z,1017.19
2017-12-17T09:46:50.012Z,1017.21
2017-12-17T09:47:49.997Z,1017.22
2017-12-17T09:48:49.993Z,1017.29
2017-12-17T09:49:49.984Z,1017.28
2017-12-17T09:50:49.971Z,1017.29
2017-12-17T09:51:49.965Z,1017.26
2017-12-17T09:52:49.957Z,1017.29
2017-12-17T09:53:49.943Z,1017.30
2017-12-17T09:54:49.937Z,1017.30
2017-12-17T09:55:49.928Z,1017.28
2017-12-17T09:56:49.920Z,1017.31
2017-12-17T09:57:49.914Z,1017.34
2017-12-17T09:58:49.900Z,1017.37
2017-12-17T09:59:49.884Z,1017.39
2017-12-17T10:00:49.876Z,1017.38
2017-12-17T10:01:49.868Z,1017.39
2017-12-17T10:02:49.858Z,1017.39
2017-12-17T10:03:49.841Z,1017.38
2017-12-17T10:04:49.840Z,1017.40
2017-12-17T10:05:49.856Z,1017.41
2017-12-17T10:06:49.821Z,1017.41
2017-12-17T10:07:50.736Z,1017.42
2017-12-17T10:08:49.808Z,1017.39
2017-12-17T10:09:50.251Z,1017.40
2017-12-17T10:10:49.794Z,1017.41
2017-12-17T10:11:49.780Z,1017.44
2017-12-17T10:12:49.768Z,1017.43
2017-12-17T10:13:49.815Z,1017.45
2017-12-17T10:14:49.762Z,1017.43
2017-12-17T10:15:49.737Z,1017.42
2017-12-17T10:16:49.737Z,1017.42
2017-12-17T10:17:49.723Z,1017.43
2017-12-17T10:18:49.712Z,1017.44
2017-12-17T10:19:49.693Z,1017.45
2017-12-17T10:20:49.683Z,1017.46
2017-12-17T10:21:49.686Z,1017.48
2017-12-17T10:22:51.525Z,1017.42
2017-12-17T10:23:49.667Z,1017.44
2017-12-17T10:24:49.674Z,1017.42
2017-12-17T10:25:49.645Z,1017.43
2017-12-17T10:26:49.635Z,1017.41
2017-12-17T10:27:49.631Z,1017.43
2017-12-17T10:28:49.631Z,1017.40
2017-12-17T10:29:49.627Z,1017.43
2017-12-17T10:30:49.605Z,1017.43
2017-12-17T10:31:49.596Z,1017.42
2017-12-17T10:32:49.879Z,1017.41
2017-12-17T10:33:49.846Z,1017.38
2017-12-17T10:34:49.624Z,1017.39
2017-12-17T10:35:49.563Z,1017.42
2017-12-17T10:36:49.554Z,1017.44
2017-12-17T10:37:49.540Z,1017.42
2017-12-17T10:38:49.566Z,1017.42
2017-12-17T10:39:49.672Z,1017.39
2017-12-17T10:40:49.507Z,1017.36
2017-12-17T10:41:49.900Z,1017.36
2017-12-17T10:42:49.493Z,1017.34
2017-12-17T10:43:49.486Z,1017.33
2017-12-17T10:44:49.468Z,1017.30
2017-12-17T10:45:50.005Z,1017.34
2017-12-17T10:46:50.065Z,1017.28
2017-12-17T10:47:49.457Z,1017.30
2017-12-17T10:48:51.436Z,1017.29
2017-12-17T10:49:49.434Z,1017.33
2017-12-17T10:50:49.430Z,1017.33
2017-12-17T10:51:49.416Z,1017.33
2017-12-17T10:52:49.664Z,1017.35
2017-12-17T10:53:49.399Z,1017.36
2017-12-17T10:54:50.052Z,1017.39
2017-12-17T10:55:49.370Z,1017.40
2017-12-17T10:56:49.367Z,1017.41
2017-12-17T10:57:49.372Z,1017.39
2017-12-17T10:58:49.376Z,1017.41
2017-12-17T10:59:49.381Z,1017.43
2017-12-17T11:00:49.377Z,1017.41
2017-12-17T11:01:49.380Z,1017.41
2017-12-17T11:02:49.322Z,1017.43
2017-12-17T11:03:49.318Z,1017.47
2017-12-17T11:04:49.306Z,1017.47
2017-12-17T11:05:49.295Z,1017.52
2017-12-17T11:06:49.285Z,1017.50
2017-12-17T11:07:50.260Z,1017.48
2017-12-17T11:08:49.269Z,1017.46
2017-12-17T11:09:49.262Z,1017.52
2017-12-17T11:10:49.252Z,1017.45
2017-12-17T11:11:49.241Z,1017.46
2017-12-17T11:12:49.231Z,1017.51
2017-12-17T11:13:49.223Z,1017.44
2017-12-17T11:14:49.212Z,1017.48
2017-12-17T11:15:49.205Z,1017.46
2017-12-17T11:16:49.228Z,1017.43
2017-12-17T11:17:49.185Z,1017.45
2017-12-17T11:18:49.183Z,1017.41
2017-12-17T11:19:49.177Z,1017.43
2017-12-17T11:20:49.761Z,1017.41
2017-12-17T11:21:49.162Z,1017.41
2017-12-17T11:22:49.155Z,1017.41
2017-12-17T11:23:49.139Z,1017.40
2017-12-17T11:24:01.145Z,1017.39
2017-12-17T11:25:49.134Z,1017.42
2017-12-17T11:26:49.120Z,1017.44
2017-12-17T11:27:49.108Z,1017.42
2017-12-17T11:28:49.097Z,1017.41
2017-12-17T11:29:52.402Z,1017.42
2017-12-17T11:30:49.080Z,1017.42
2017-12-17T11:31:49.071Z,1017.36
2017-12-17T11:32:49.067Z,1017.40
2017-12-17T11:33:49.059Z,1017.40
2017-12-17T11:34:49.762Z,1017.40
2017-12-17T11:35:49.041Z,1017.38
2017-12-17T11:36:49.032Z,1017.35
2017-12-17T11:37:49.024Z,1017.35
2017-12-17T11:38:49.006Z,1017.34
2017-12-17T11:39:49.762Z,1017.36
2017-12-17T11:40:49.249Z,1017.48
2017-12-17T11:41:48.987Z,1017.43
2017-12-17T11:42:49.782Z,1017.42
2017-12-17T11:43:48.976Z,1017.41
2017-12-17T11:44:48.962Z,1017.36
2017-12-17T11:45:48.956Z,1017.41
2017-12-17T11:46:48.945Z,1017.42
2017-12-17T11:47:48.937Z,1017.37
2017-12-17T11:48:48.929Z,1017.40
2017-12-17T11:49:48.916Z,1017.39
2017-12-17T11:50:48.910Z,1017.36
2017-12-17T11:51:55.768Z,1017.36
2017-12-17T11:52:48.889Z,1017.40
2017-12-17T11:53:48.880Z,1017.41
2017-12-17T11:54:48.873Z,1017.39
2017-12-17T11:55:48.863Z,1017.36
2017-12-17T11:56:48.913Z,1017.38
2017-12-17T11:57:48.844Z,1017.38
2017-12-17T11:58:48.835Z,1017.39
2017-12-17T11:59:49.774Z,1017.41
2017-12-17T12:00:48.822Z,1017.40
2017-12-17T12:01:48.813Z,1017.39
2017-12-17T12:02:48.804Z,1017.43
2017-12-17T12:03:48.794Z,1017.41
2017-12-17T12:04:48.786Z,1017.44
2017-12-17T12:05:48.784Z,1017.40